Time;durP1;ratioP1;P1;durP2;ratioP2;P2;SDS_P1;SDS_P2;PMS_P1;PMS_P2;Temp;Humidity;BMP_temperature;BMP_pressure;BME280_temperature;BME280_humidity;BME280_pressure;Samples;Min_cycle;Max_cycle;Signal;HPM_P1;HPM_P2
2022/03/09 00:00:52;;;;;;;93.78;40.30;;;;;;;1.08;67.18;101160.84;5034330;28;20143;-77
2022/03/09 00:03:17;;;;;;;90.85;40.83;;;;;;;1.11;67.81;101162.84;5016713;28;20038;-78
2022/03/09 00:05:44;;;;;;;96.43;42.20;;;;;;;1.14;67.56;101168.47;5016542;28;20038;-77
2022/03/09 00:08:10;;;;;;;83.68;39.53;;;;;;;1.15;67.55;101172.88;5016737;28;20108;-77
2022/03/09 00:10:37;;;;;;;80.97;39.17;;;;;;;1.22;67.61;101167.31;5034069;28;20603;-78
2022/03/09 00:13:04;;;;;;;89.03;40.10;;;;;;;1.27;67.40;101163.34;5034175;28;20028;-76
2022/03/09 00:15:30;;;;;;;78.97;38.05;;;;;;;1.28;67.55;101154.50;5016416;28;20025;-78
2022/03/09 00:17:57;;;;;;;90.00;41.88;;;;;;;1.29;67.58;101155.31;5035143;28;20112;-79
2022/03/09 00:20:23;;;;;;;76.35;39.40;;;;;;;1.32;67.48;101157.34;5031222;28;20061;-80
2022/03/09 00:22:48;;;;;;;82.95;39.65;;;;;;;1.37;67.71;101156.16;5048557;28;20040;-76
2022/03/09 00:25:14;;;;;;;82.63;38.90;;;;;;;1.43;67.68;101155.34;5039445;28;20037;-79
2022/03/09 00:27:39;;;;;;;79.72;38.47;;;;;;;1.43;67.59;101151.78;5016142;28;20025;-78
2022/03/09 00:30:05;;;;;;;83.82;39.47;;;;;;;1.39;67.03;101136.91;5015550;28;20040;-79
2022/03/09 00:32:31;;;;;;;83.53;39.28;;;;;;;1.52;66.81;101150.19;5014484;28;20048;-80
2022/03/09 00:34:56;;;;;;;92.15;41.60;;;;;;;1.54;67.43;101150.59;5015590;28;20025;-77
2022/03/09 00:37:22;;;;;;;83.82;39.83;;;;;;;1.56;66.91;101158.63;5032163;28;20025;-78
2022/03/09 00:39:47;;;;;;;79.65;40.80;;;;;;;1.56;67.08;101151.00;5032028;28;20386;-78
2022/03/09 00:42:13;;;;;;;91.40;40.45;;;;;;;1.58;66.96;101153.41;5033311;28;20029;-78
2022/03/09 00:44:38;;;;;;;79.60;39.15;;;;;;;1.57;66.98;101152.63;5033432;28;20030;-78
2022/03/09 00:47:04;;;;;;;90.55;40.35;;;;;;;1.58;67.23;101145.78;5015531;28;20386;-78
2022/03/09 00:49:29;;;;;;;89.63;42.75;;;;;;;1.53;67.32;101140.56;5015787;28;20423;-79
2022/03/09 00:51:54;;;;;;;87.80;40.60;;;;;;;1.51;67.74;101140.16;5015716;28;20029;-77
2022/03/09 00:54:20;;;;;;;100.90;43.42;;;;;;;1.50;67.34;101134.94;5015927;28;20402;-78
2022/03/09 00:56:45;;;;;;;102.25;44.58;;;;;;;1.46;67.38;101136.94;5016388;28;20458;-78
2022/03/09 00:59:10;;;;;;;103.40;44.47;;;;;;;1.39;67.78;101118.06;5034206;28;20485;-78
2022/03/09 01:01:36;;;;;;;94.65;44.70;;;;;;;1.31;67.61;101116.44;5033577;28;20095;-78
2022/03/09 01:04:01;;;;;;;94.85;44.97;;;;;;;1.28;67.35;101120.81;5033187;28;20037;-78
2022/03/09 01:06:26;;;;;;;97.25;45.92;;;;;;;1.19;67.87;101122.41;5033228;28;20033;-76
2022/03/09 01:08:52;;;;;;;105.47;46.22;;;;;;;1.14;67.87;101134.81;4998740;28;20129;-77
2022/03/09 01:11:19;;;;;;;99.40;47.78;;;;;;;0.97;68.35;101115.09;5015335;28;20034;-77
2022/03/09 01:13:44;;;;;;;96.15;45.90;;;;;;;1.01;68.25;101127.94;5013453;28;20029;-77
2022/03/09 01:16:09;;;;;;;100.10;45.70;;;;;;;0.96;68.36;101131.13;5031130;28;20152;-78
2022/03/09 01:18:35;;;;;;;91.38;45.28;;;;;;;0.91;69.35;101137.09;5013519;28;20025;-78
2022/03/09 01:21:00;;;;;;;90.30;46.47;;;;;;;0.86;69.19;101138.28;5031472;28;20112;-77
2022/03/09 01:23:25;;;;;;;95.30;46.13;;;;;;;0.84;68.98;101134.25;5031274;28;20036;-77
2022/03/09 01:25:52;;;;;;;108.10;48.03;;;;;;;0.79;69.42;101129.06;5013486;28;20034;-78
2022/03/09 01:28:18;;;;;;;101.15;45.90;;;;;;;0.79;69.44;101127.03;5015049;28;20032;-78
2022/03/09 01:30:43;;;;;;;105.55;46.95;;;;;;;0.77;69.67;101129.44;5032588;28;20029;-77
2022/03/09 01:33:09;;;;;;;96.03;43.60;;;;;;;0.82;68.90;101117.84;5014436;28;20029;-79
2022/03/09 01:35:36;;;;;;;99.90;46.55;;;;;;;0.75;69.85;101126.22;5033011;28;20463;-78
2022/03/09 01:38:01;;;;;;;97.55;45.58;;;;;;;0.71;69.71;101116.97;5015274;28;20386;-78
2022/03/09 01:40:27;;;;;;;117.35;48.33;;;;;;;0.65;69.95;101121.34;5011697;28;20495;-78
2022/03/09 01:42:52;;;;;;;94.65;46.80;;;;;;;0.40;70.41;101083.94;5016834;28;20061;-77
2022/03/09 01:45:20;;;;;;;99.38;47.38;;;;;;;0.59;70.41;101116.53;5016453;28;20060;-78
2022/03/09 01:47:46;;;;;;;99.20;46.47;;;;;;;0.57;70.41;101110.50;5022853;28;20379;-78
2022/03/09 01:50:11;;;;;;;100.80;48.70;;;;;;;0.51;70.65;101117.66;5025681;28;20025;-77
2022/03/09 01:52:37;;;;;;;86.93;44.28;;;;;;;0.47;70.24;101114.03;5036703;28;20045;-78
2022/03/09 01:55:03;;;;;;;96.65;45.78;;;;;;;0.40;70.93;101109.97;5036499;28;20038;-78
2022/03/09 01:57:30;;;;;;;88.97;44.75;;;;;;;0.37;71.13;101112.75;5037025;28;20057;-77
2022/03/09 01:59:55;;;;;;;96.00;43.80;;;;;;;0.34;71.28;101113.56;5030899;28;20049;-78
2022/03/09 02:02:21;;;;;;;82.45;41.22;;;;;;;0.31;71.44;101114.31;5030820;28;20474;-78
2022/03/09 02:04:46;;;;;;;92.70;44.53;;;;;;;0.24;71.58;101117.09;5033455;28;20061;-78
2022/03/09 02:07:12;;;;;;;103.85;46.20;;;;;;;0.08;71.72;101100.56;5015067;28;20022;-79
2022/03/09 02:09:47;;;;;;;86.43;44.17;;;;;;;0.15;71.96;101116.63;5025810;28;20030;-79
2022/03/09 02:12:21;;;;;;;103.45;45.35;;;;;;;0.02;72.31;101112.50;5018016;28;20113;-78
2022/03/09 02:14:49;;;;;;;96.63;47.33;;;;;;;0.03;72.01;101112.09;5016466;28;20030;-78
2022/03/09 02:17:20;;;;;;;90.28;45.03;;;;;;;-0.03;72.06;101108.06;5000519;28;20037;-78
2022/03/09 02:19:47;;;;;;;100.32;43.60;;;;;;;-0.06;72.30;101108.84;5016969;28;20560;-78
2022/03/09 02:22:32;;;;;;;102.10;46.22;;;;;;;-0.13;72.29;101109.56;5017271;28;20025;-78
2022/03/09 02:24:58;;;;;;;96.65;43.55;;;;;;;-0.17;72.76;101111.53;5015235;28;20076;-78
2022/03/09 02:27:24;;;;;;;83.90;43.13;;;;;;;-0.26;72.27;101090.66;5017775;28;20374;-77
2022/03/09 02:29:50;;;;;;;100.95;44.35;;;;;;;-0.22;73.12;101099.88;5016938;28;20041;-78
2022/03/09 02:32:16;;;;;;;94.30;42.92;;;;;;;-0.27;73.01;101091.84;5016929;28;20041;-77
2022/03/09 02:34:42;;;;;;;95.47;43.55;;;;;;;-0.22;72.87;101092.31;5018505;28;20025;-77
2022/03/09 02:37:07;;;;;;;93.13;45.28;;;;;;;-0.18;72.90;101093.13;5017270;28;20030;-77
2022/03/09 02:39:33;;;;;;;91.25;43.17;;;;;;;-0.15;72.89;101091.56;5015483;28;20061;-78
2022/03/09 02:41:58;;;;;;;93.30;43.85;;;;;;;-0.13;73.18;101089.16;5016253;28;20044;-77
2022/03/09 02:44:24;;;;;;;94.68;41.72;;;;;;;-0.16;73.27;101085.16;5016096;28;20032;-77
2022/03/09 02:46:49;;;;;;;88.68;42.88;;;;;;;-0.15;73.22;101089.53;5016347;28;20119;-78
2022/03/09 02:49:14;;;;;;;89.72;44.05;;;;;;;-0.16;73.18;101085.16;5016023;28;20080;-77
2022/03/09 02:51:40;;;;;;;94.35;43.65;;;;;;;-0.17;73.58;101085.53;5014532;28;20387;-78
2022/03/09 02:54:05;;;;;;;93.80;43.22;;;;;;;-0.28;73.23;101070.63;4998163;28;20108;-77
2022/03/09 02:56:31;;;;;;;89.07;42.85;;;;;;;-0.35;73.23;101074.19;5015997;28;20466;-78
2022/03/09 02:58:57;;;;;;;88.82;40.90;;;;;;;-0.29;73.54;101086.63;5014668;28;20033;-79
2022/03/09 03:01:22;;;;;;;79.68;39.85;;;;;;;-0.34;73.42;101078.59;5015911;28;20030;-78
2022/03/09 03:03:47;;;;;;;82.07;40.00;;;;;;;-0.35;74.02;101076.19;5014355;28;20029;-77
2022/03/09 03:06:13;;;;;;;82.72;38.85;;;;;;;-0.38;74.19;101079.75;4997924;28;20108;-77
2022/03/09 03:08:39;;;;;;;79.20;37.50;;;;;;;-0.39;74.29;101080.94;5014139;28;20348;-76
2022/03/09 03:11:05;;;;;;;72.47;37.25;;;;;;;-0.40;74.57;101079.34;5015617;28;20052;-77
2022/03/09 03:13:31;;;;;;;79.28;37.00;;;;;;;-0.38;74.34;101093.72;4997915;28;20029;-78
2022/03/09 03:15:57;;;;;;;74.10;36.05;;;;;;;-0.38;74.45;101083.34;5014128;28;20033;-78
2022/03/09 03:18:22;;;;;;;76.10;35.50;;;;;;;-0.47;75.07;101071.69;5015324;28;20429;-78
2022/03/09 03:20:49;;;;;;;70.97;35.13;;;;;;;-0.36;74.76;101086.56;5013999;28;20475;-77
2022/03/09 03:23:14;;;;;;;76.55;34.38;;;;;;;-0.36;74.61;101091.38;5015161;28;20025;-79
2022/03/09 03:25:40;;;;;;;60.85;33.70;;;;;;;-0.38;74.53;101080.56;5015043;28;20037;-78
2022/03/09 03:28:05;;;;;;;63.13;33.78;;;;;;;-0.36;74.84;101077.38;5013791;28;20026;-78
2022/03/09 03:30:30;;;;;;;67.03;31.80;;;;;;;-0.34;74.62;101078.59;5015068;28;20053;-77
2022/03/09 03:32:56;;;;;;;67.60;32.78;;;;;;;-0.31;74.69;101082.63;5013933;28;20379;-77
2022/03/09 03:35:21;;;;;;;65.75;31.23;;;;;;;-0.31;74.67;101086.22;5014953;28;20309;-77
2022/03/09 03:37:46;;;;;;;61.15;30.95;;;;;;;-0.52;74.44;101049.66;5014817;28;20483;-77
2022/03/09 03:40:12;;;;;;;70.28;33.00;;;;;;;-0.30;74.59;101087.03;5025383;28;20076;-77
2022/03/09 03:42:37;;;;;;;72.05;33.10;;;;;;;-0.34;74.26;101077.78;5017142;28;20053;-77
2022/03/09 03:45:03;;;;;;;66.82;30.45;;;;;;;-0.32;74.01;101079.00;5016820;28;20059;-78
2022/03/09 03:47:28;;;;;;;62.78;29.15;;;;;;;-0.28;73.99;101084.63;5034857;28;20025;-76
2022/03/09 03:49:54;;;;;;;56.38;28.65;;;;;;;-0.28;73.92;101084.63;5016703;28;20453;-77
2022/03/09 03:52:19;;;;;;;65.35;29.90;;;;;;;-0.21;74.01;101081.91;5034601;28;20029;-77
2022/03/09 03:54:45;;;;;;;56.28;28.92;;;;;;;-0.20;73.78;101089.13;5034354;28;20032;-78
2022/03/09 03:57:10;;;;;;;65.65;28.05;;;;;;;-0.20;73.43;101086.31;5016969;28;20064;-78
2022/03/09 03:59:36;;;;;;;64.30;30.35;;;;;;;-0.21;73.49;101088.31;5034570;28;20108;-78
2022/03/09 04:02:01;;;;;;;58.78;28.10;;;;;;;-0.21;73.12;101091.13;5034426;28;20036;-78
2022/03/09 04:04:27;;;;;;;54.38;27.27;;;;;;;-0.19;73.23;101090.72;5033668;28;20381;-77
2022/03/09 04:06:53;;;;;;;56.55;28.80;;;;;;;-0.18;72.68;101089.53;5034168;28;20017;-77
2022/03/09 04:09:18;;;;;;;54.25;25.95;;;;;;;-0.32;72.69;101069.81;5000403;28;20485;-79
2022/03/09 04:11:43;;;;;;;58.40;28.10;;;;;;;-0.14;73.19;101091.16;5036549;28;20033;-78
2022/03/09 04:14:09;;;;;;;55.28;27.15;;;;;;;-0.14;72.61;101096.75;5017787;28;20068;-78
2022/03/09 04:16:34;;;;;;;53.60;27.50;;;;;;;-0.12;72.85;101102.78;5034399;28;20033;-78
2022/03/09 04:18:59;;;;;;;60.10;28.15;;;;;;;-0.09;72.41;101102.00;5036215;28;20061;-78
2022/03/09 04:21:25;;;;;;;52.45;25.77;;;;;;;-0.08;72.64;101098.03;5016918;28;20021;-78
2022/03/09 04:23:50;;;;;;;52.55;25.08;;;;;;;-0.02;72.25;101109.66;5017742;28;20039;-78
2022/03/09 04:26:15;;;;;;;57.78;25.95;;;;;;;0.05;71.99;101100.53;5036436;28;20489;-77
2022/03/09 04:28:41;;;;;;;48.20;23.98;;;;;;;0.14;71.96;101110.22;5036359;28;20164;-77
2022/03/09 04:31:07;;;;;;;46.97;23.92;;;;;;;0.21;71.67;101106.63;5037416;28;20033;-78
2022/03/09 04:33:32;;;;;;;56.47;24.40;;;;;;;0.32;71.85;101111.13;5019203;28;20033;-78
2022/03/09 04:35:58;;;;;;;50.75;24.40;;;;;;;0.44;71.53;101118.44;5037136;28;20454;-77
2022/03/09 04:38:25;;;;;;;48.22;23.50;;;;;;;0.57;71.50;101130.91;5036367;28;20025;-77
2022/03/09 04:40:51;;;;;;;49.22;23.77;;;;;;;0.64;71.30;101121.75;5016460;28;20050;-77
2022/03/09 04:43:18;;;;;;;49.83;24.00;;;;;;;0.74;70.58;101121.78;5017215;28;20060;-78
2022/03/09 04:45:45;;;;;;;46.75;22.45;;;;;;;0.83;70.51;101127.88;5023628;28;20068;-77
2022/03/09 04:48:18;;;;;;;47.20;24.10;;;;;;;0.93;70.09;101137.53;5026994;28;20029;-77
2022/03/09 04:50:44;;;;;;;52.35;26.52;;;;;;;0.87;69.98;101113.88;5018724;28;20475;-77
2022/03/09 04:53:10;;;;;;;47.10;22.27;;;;;;;1.07;70.35;101132.00;5013271;28;20048;-77
2022/03/09 04:55:36;;;;;;;50.88;23.30;;;;;;;1.13;69.91;101121.19;5014873;28;20029;-78
2022/03/09 04:58:02;;;;;;;51.58;21.35;;;;;;;1.19;69.67;101119.59;5015002;28;20018;-77
2022/03/09 05:00:29;;;;;;;42.55;21.75;;;;;;;1.23;69.78;101124.00;5015516;28;20022;-76
2022/03/09 05:02:55;;;;;;;40.17;20.35;;;;;;;1.33;69.86;101124.47;5015097;28;20037;-77
2022/03/09 05:05:20;;;;;;;40.05;20.13;;;;;;;1.41;69.41;101124.09;5014836;28;20030;-78
2022/03/09 05:07:46;;;;;;;45.03;19.95;;;;;;;1.46;69.04;101126.50;5012445;28;20025;-78
2022/03/09 05:10:13;;;;;;;40.35;20.55;;;;;;;1.52;68.84;101127.75;5012120;28;20029;-77
2022/03/09 05:12:38;;;;;;;41.88;21.75;;;;;;;1.60;68.43;101129.34;5013583;28;20022;-77
2022/03/09 05:15:05;;;;;;;41.33;21.33;;;;;;;1.67;68.87;101129.38;5010045;28;20052;-78
2022/03/09 05:17:31;;;;;;;48.03;20.92;;;;;;;1.72;68.29;101129.00;5012292;28;20037;-77
2022/03/09 05:19:57;;;;;;;44.17;21.10;;;;;;;1.81;68.38;101139.00;5013113;28;20047;-78
2022/03/09 05:22:22;;;;;;;40.08;20.77;;;;;;;1.91;67.87;101133.41;5013692;28;20034;-78
2022/03/09 05:24:48;;;;;;;40.25;19.70;;;;;;;1.88;67.48;101130.59;5013359;28;20101;-78
2022/03/09 05:27:15;;;;;;;46.60;19.90;;;;;;;1.89;67.77;101146.25;5012128;28;20033;-78
2022/03/09 05:29:41;;;;;;;41.80;18.90;;;;;;;1.90;67.83;101131.81;5013532;28;20030;-78
2022/03/09 05:32:07;;;;;;;40.08;19.95;;;;;;;1.88;67.40;101134.19;5012581;28;20040;-79
2022/03/09 05:34:32;;;;;;;47.70;20.27;;;;;;;1.96;67.42;101147.06;5014908;28;20438;-78
2022/03/09 05:36:59;;;;;;;40.13;21.08;;;;;;;2.01;67.05;101140.25;5016995;28;20055;-77
2022/03/09 05:39:26;;;;;;;42.65;20.02;;;;;;;2.06;67.64;101146.28;5022633;28;20042;-77
2022/03/09 05:41:58;;;;;;;43.80;19.58;;;;;;;2.13;67.37;101143.44;5036527;28;20092;-78
2022/03/09 05:44:24;;;;;;;53.15;20.98;;;;;;;2.10;66.92;101129.41;5036504;28;20121;-77
2022/03/09 05:46:51;;;;;;;48.95;19.73;;;;;;;2.24;67.07;101151.88;5037741;28;20057;-79
2022/03/09 05:49:18;;;;;;;40.00;21.17;;;;;;;2.27;66.88;101145.44;5001906;28;20038;-77
2022/03/09 05:51:44;;;;;;;38.88;19.92;;;;;;;2.31;66.68;101149.09;5033928;28;20057;-80
2022/03/09 05:54:11;;;;;;;45.80;20.33;;;;;;;2.21;66.94;101138.66;5033914;28;20029;-78
2022/03/09 05:56:38;;;;;;;45.40;20.08;;;;;;;2.37;66.51;101167.13;5033730;28;20025;-80
2022/03/09 05:59:04;;;;;;;40.72;20.00;;;;;;;2.45;66.35;101165.13;5017184;28;20040;-78
2022/03/09 06:01:34;;;;;;;46.70;19.75;;;;;;;2.51;65.99;101166.34;5017305;28;20034;-77
2022/03/09 06:04:02;;;;;;;51.38;21.20;;;;;;;2.58;66.13;101158.69;5034730;28;20033;-75
2022/03/09 06:06:29;;;;;;;50.15;21.40;;;;;;;2.60;66.09;101164.72;5017226;28;20029;-77
2022/03/09 06:08:55;;;;;;;50.25;21.38;;;;;;;2.74;65.59;101166.72;5020599;28;20048;-77
2022/03/09 06:11:22;;;;;;;42.78;19.02;;;;;;;2.85;65.56;101163.88;5017902;28;20494;-77
2022/03/09 06:13:56;;;;;;;49.95;21.08;;;;;;;3.00;65.11;101171.06;5021444;28;20041;-79
2022/03/09 06:16:22;;;;;;;47.67;20.15;;;;;;;3.15;64.99;101172.66;5017479;28;20033;-77
2022/03/09 06:18:49;;;;;;;49.92;20.30;;;;;;;3.30;64.76;101171.38;5016881;28;20112;-78
2022/03/09 06:21:15;;;;;;;45.10;20.08;;;;;;;3.45;64.32;101172.13;5033735;28;20029;-77
2022/03/09 06:23:42;;;;;;;52.00;22.70;;;;;;;3.45;64.20;101150.38;4999927;28;20498;-77
2022/03/09 06:26:08;;;;;;;43.55;21.83;;;;;;;3.73;63.83;101174.00;5033100;28;20043;-78
2022/03/09 06:28:35;;;;;;;45.55;21.02;;;;;;;3.87;62.98;101171.88;5024235;28;20367;-78
2022/03/09 06:31:03;;;;;;;50.60;21.55;;;;;;;3.98;62.52;101169.00;5036818;28;20455;-77
2022/03/09 06:33:28;;;;;;;44.20;21.58;;;;;;;4.04;62.02;101173.00;5037908;28;20044;-77
2022/03/09 06:35:53;;;;;;;45.53;23.25;;;;;;;4.17;62.47;101171.28;5018808;28;20466;-76
2022/03/09 06:38:19;;;;;;;44.83;21.77;;;;;;;4.38;61.93;101175.97;5036699;28;20017;-77
2022/03/09 06:40:44;;;;;;;43.47;20.70;;;;;;;4.56;61.28;101179.41;5037014;28;20076;-77
2022/03/09 06:43:10;;;;;;;38.58;21.77;;;;;;;4.69;60.22;101180.50;5037155;28;20055;-77
2022/03/09 06:45:36;;;;;;;44.35;21.63;;;;;;;4.94;59.92;101177.44;5019888;28;20037;-78
2022/03/09 06:48:02;;;;;;;48.20;24.73;;;;;;;5.15;59.70;101182.06;5006085;28;20032;-77
2022/03/09 06:50:27;;;;;;;44.25;23.85;;;;;;;5.34;59.61;101164.47;5041185;28;20073;-76
2022/03/09 06:52:53;;;;;;;47.05;23.45;;;;;;;5.63;58.01;101177.00;5033476;28;20029;-77
2022/03/09 06:55:18;;;;;;;53.33;23.60;;;;;;;6.07;57.50;101178.84;5032345;28;20021;-77
2022/03/09 06:57:44;;;;;;;39.85;22.92;;;;;;;7.31;55.22;101175.88;5035256;28;20089;-78
2022/03/09 07:00:11;;;;;;;50.45;23.80;;;;;;;8.51;52.58;101161.84;5033468;28;20043;-78
2022/03/09 07:02:38;;;;;;;45.88;23.65;;;;;;;9.56;50.15;101167.91;5034004;28;20031;-77
2022/03/09 07:05:04;;;;;;;45.22;23.15;;;;;;;10.62;47.68;101166.59;5052771;28;20005;-78
2022/03/09 07:07:30;;;;;;;43.13;24.17;;;;;;;12.49;43.61;101155.88;5052091;28;20082;-77
2022/03/09 07:09:56;;;;;;;41.72;21.48;;;;;;;14.90;38.65;101156.91;5052712;28;20017;-77
2022/03/09 07:12:21;;;;;;;40.85;21.75;;;;;;;17.26;34.97;101139.03;5032599;28;20092;-78
2022/03/09 07:14:47;;;;;;;43.40;22.35;;;;;;;20.44;30.74;101141.66;5024847;28;20090;-77
2022/03/09 07:17:12;;;;;;;38.45;21.65;;;;;;;22.83;26.03;101142.41;5021919;28;20025;-78
2022/03/09 07:19:38;;;;;;;38.95;20.50;;;;;;;24.68;23.65;101132.53;5005384;28;20026;-78
2022/03/09 07:22:04;;;;;;;40.75;21.25;;;;;;;26.44;21.75;101140.88;5002759;28;20021;-78
2022/03/09 07:24:29;;;;;;;40.17;22.55;;;;;;;27.85;19.73;101142.91;5017921;28;20501;-77
2022/03/09 07:26:56;;;;;;;42.55;21.75;;;;;;;28.90;18.24;101142.84;5020840;28;20026;-79
2022/03/09 07:29:21;;;;;;;44.17;20.65;;;;;;;29.77;17.66;101134.16;5036209;28;20032;-78
2022/03/09 07:31:47;;;;;;;42.97;22.70;;;;;;;30.41;16.31;101129.66;5021004;28;20022;-79
2022/03/09 07:34:15;;;;;;;40.08;20.67;;;;;;;30.24;15.40;101130.41;5013343;28;20076;-80
2022/03/09 07:36:41;;;;;;;38.75;21.55;;;;;;;30.44;15.34;101128.47;5028160;28;20033;-80
2022/03/09 07:39:06;;;;;;;40.55;21.20;;;;;;;30.84;14.68;101140.09;5016150;28;20022;-79
2022/03/09 07:41:31;;;;;;;41.42;21.10;;;;;;;31.23;14.32;101139.13;5032939;28;20503;-80
2022/03/09 07:43:57;;;;;;;38.05;20.38;;;;;;;31.45;13.87;101137.28;5017705;28;20104;-79
2022/03/09 07:46:22;;;;;;;39.63;19.17;;;;;;;32.07;13.69;101135.13;5005909;28;20085;-81
2022/03/09 07:48:48;;;;;;;35.72;18.50;;;;;;;32.78;13.09;101138.72;5035259;28;20037;-81
2022/03/09 07:51:13;;;;;;;39.53;19.92;;;;;;;33.24;12.00;101132.78;5037250;28;20030;-80
2022/03/09 07:53:42;;;;;;;36.65;18.90;;;;;;;32.97;12.28;101132.06;5035821;28;20485;-84
2022/03/09 07:56:13;;;;;;;40.13;18.85;;;;;;;30.10;14.28;101120.28;5003226;28;20426;-82
2022/03/09 07:58:38;;;;;;;30.23;18.27;;;;;;;26.37;17.05;101132.81;5005696;28;20147;-79
2022/03/09 08:01:05;;;;;;;35.83;19.15;;;;;;;25.70;17.85;101127.81;5021459;28;20040;-78
2022/03/09 08:03:33;;;;;;;33.70;19.42;;;;;;;26.28;16.39;101124.53;5037442;28;20107;-77
2022/03/09 08:06:02;;;;;;;33.97;16.92;;;;;;;27.41;15.92;101118.72;5038429;28;20034;-83
2022/03/09 08:08:28;;;;;;;29.30;15.93;;;;;;;28.14;15.28;101110.56;5040540;28;20044;-82
2022/03/09 08:10:53;;;;;;;35.55;17.08;;;;;;;27.93;14.96;101119.47;5037231;28;20108;-78
2022/03/09 08:13:19;;;;;;;31.88;16.60;;;;;;;27.13;15.76;101118.00;5020888;28;20079;-79
2022/03/09 08:15:44;;;;;;;27.40;15.25;;;;;;;24.29;17.18;101118.69;5038403;28;20106;-81
2022/03/09 08:18:10;;;;;;;31.15;14.95;;;;;;;22.09;20.53;101126.19;5022962;28;20060;-80
2022/03/09 08:20:35;;;;;;;26.60;14.57;;;;;;;21.94;20.35;101125.78;5037910;28;20088;-83
2022/03/09 08:23:01;;;;;;;36.30;18.65;;;;;;;21.81;20.27;101123.47;5004399;28;20037;-83
2022/03/09 08:25:27;;;;;;;34.97;15.18;;;;;;;21.54;20.64;101121.53;5017712;28;20071;-84
2022/03/09 08:27:52;;;;;;;24.55;13.63;;;;;;;21.59;20.99;101114.13;5036277;28;20025;-79
2022/03/09 08:30:18;;;;;;;27.98;14.65;;;;;;;21.68;20.21;101119.59;5033353;28;20154;-82
2022/03/09 08:32:43;;;;;;;24.75;13.63;;;;;;;21.54;20.50;101119.44;5015334;28;20037;-80
2022/03/09 08:35:08;;;;;;;28.77;14.18;;;;;;;21.39;20.83;101121.88;5037392;28;20036;-80
2022/03/09 08:37:34;;;;;;;20.35;10.02;;;;;;;21.37;20.44;101124.53;5016470;28;20060;-83
2022/03/09 08:40:02;;;;;;;27.80;12.23;;;;;;;21.23;20.17;101122.75;5033384;28;20064;-84
2022/03/09 08:42:28;;;;;;;31.25;13.05;;;;;;;21.09;20.53;101120.94;5018457;28;20025;-79
2022/03/09 08:44:55;;;;;;;20.15;10.98;;;;;;;20.90;20.44;101119.97;5034136;28;20067;-79
2022/03/09 08:47:20;;;;;;;22.30;11.63;;;;;;;20.83;20.84;101129.19;5016071;28;20052;-77
2022/03/09 08:49:46;;;;;;;20.50;10.55;;;;;;;20.60;20.83;101128.47;5034450;28;20462;-79
2022/03/09 08:52:11;;;;;;;20.45;10.43;;;;;;;20.27;20.78;101132.19;5017905;28;20091;-81
2022/03/09 08:54:38;;;;;;;19.10;9.95;;;;;;;19.73;21.66;101120.81;5036839;28;20064;-81
2022/03/09 08:57:05;;;;;;;26.98;11.63;;;;;;;19.40;22.29;101130.19;5018428;28;20052;-81
2022/03/09 08:59:30;;;;;;;27.30;10.25;;;;;;;19.20;23.25;101133.28;5034212;28;20025;-83
2022/03/09 09:01:56;;;;;;;22.02;10.27;;;;;;;19.12;22.71;101134.28;5036546;28;20044;-76
2022/03/09 09:04:22;;;;;;;20.15;10.30;;;;;;;18.80;22.61;101124.94;5036129;28;20025;-74
2022/03/09 09:06:47;;;;;;;33.75;11.00;;;;;;;18.44;22.97;101127.34;5034987;28;20105;-75
2022/03/09 09:09:14;;;;;;;18.88;10.02;;;;;;;17.98;23.95;101121.72;5018763;28;20025;-77
2022/03/09 09:11:44;;;;;;;28.33;10.15;;;;;;;17.86;23.34;101120.03;5036982;28;20037;-79
2022/03/09 09:14:09;;;;;;;16.08;8.77;;;;;;;17.55;23.37;101119.97;5021319;28;20387;-78
2022/03/09 09:16:35;;;;;;;14.93;9.23;;;;;;;17.03;24.24;101130.63;5019784;28;20021;-79
2022/03/09 09:19:01;;;;;;;25.48;10.57;;;;;;;16.56;25.55;101126.03;5006877;28;20466;-76
2022/03/09 09:21:26;;;;;;;22.20;9.57;;;;;;;16.21;25.92;101121.06;5041816;28;20025;-76
2022/03/09 09:23:52;;;;;;;29.20;10.43;;;;;;;15.77;25.77;101112.50;5038418;28;20033;-76
2022/03/09 09:26:18;;;;;;;20.77;9.32;;;;;;;15.53;26.09;101137.63;5021275;28;20095;-74
2022/03/09 09:28:44;;;;;;;18.55;8.88;;;;;;;15.20;26.95;101129.13;5035440;28;20445;-75
2022/03/09 09:31:12;;;;;;;30.65;10.23;;;;;;;15.00;27.03;101143.31;5034140;28;20041;-73
2022/03/09 09:33:38;;;;;;;26.98;16.92;;;;;;;14.74;27.58;101136.50;5021149;28;20031;-77
2022/03/09 09:36:04;;;;;;;28.55;10.18;;;;;;;14.61;27.94;101130.97;5034766;28;20041;-78
2022/03/09 09:38:30;;;;;;;18.50;8.80;;;;;;;14.40;28.02;101123.47;5044308;28;20036;-74
2022/03/09 09:40:56;;;;;;;26.23;10.68;;;;;;;14.30;28.45;101130.50;5034578;28;20053;-74
2022/03/09 09:43:24;;;;;;;25.20;10.07;;;;;;;14.14;29.22;101128.81;5053270;28;20036;-75
2022/03/09 09:45:49;;;;;;;22.05;10.13;;;;;;;14.23;29.66;101132.44;5044186;28;20017;-82
2022/03/09 09:48:15;;;;;;;27.40;11.10;;;;;;;14.41;29.67;101134.44;5035949;28;20348;-80
2022/03/09 09:50:42;;;;;;;15.05;9.30;;;;;;;14.51;29.41;101130.25;5004050;28;20029;-79
2022/03/09 09:53:11;;;;;;;33.65;12.52;;;;;;;14.73;29.86;101138.56;5019485;28;20060;-81
2022/03/09 09:55:37;;;;;;;17.98;9.38;;;;;;;14.81;29.80;101125.44;5023206;28;20034;-81
2022/03/09 09:58:03;;;;;;;22.90;9.70;;;;;;;15.00;29.58;101128.97;5022950;28;20489;-78
2022/03/09 10:00:29;;;;;;;25.63;9.23;;;;;;;15.09;28.55;101123.97;5022722;28;20089;-76
2022/03/09 10:02:55;;;;;;;33.20;11.55;;;;;;;14.99;28.48;101118.78;5019030;28;20075;-77
2022/03/09 10:05:20;;;;;;;18.67;7.53;;;;;;;15.02;28.09;101129.28;5003084;28;20089;-80
2022/03/09 10:08:04;;;;;;;13.57;9.40;;;;;;;14.70;28.03;101134.59;5043253;28;20112;-83
2022/03/09 10:10:34;;;;;;;16.85;9.25;;;;;;;14.32;29.33;101127.94;5023441;28;20068;-84
2022/03/09 10:13:16;;;;;;;24.20;9.70;;;;;;;14.22;29.95;101135.78;5039310;28;20463;-78
2022/03/09 10:15:47;;;;;;;21.13;9.82;;;;;;;14.10;30.40;101133.94;5038830;28;20116;-79
2022/03/09 10:18:12;;;;;;;26.17;11.20;;;;;;;14.09;30.58;101133.13;5042752;28;20034;-80
2022/03/09 10:20:37;;;;;;;20.85;10.60;;;;;;;14.10;31.12;101128.19;5025101;28;20098;-80
2022/03/09 10:23:03;;;;;;;26.58;10.85;;;;;;;14.08;30.37;101128.66;5041688;28;20121;-80
2022/03/09 10:25:29;;;;;;;17.75;7.57;;;;;;;14.21;29.20;101128.44;5007767;28;20033;-77
2022/03/09 10:27:56;;;;;;;12.52;6.55;;;;;;;14.04;28.69;101118.66;5031010;28;20025;-79
2022/03/09 10:30:31;;;;;;;17.77;7.55;;;;;;;13.89;29.25;101124.28;5052313;28;20078;-78
2022/03/09 10:32:59;;;;;;;29.00;7.72;;;;;;;13.80;29.38;101130.84;5029294;28;20025;-76
2022/03/09 10:35:30;;;;;;;14.00;6.75;;;;;;;13.57;29.42;101114.34;5023489;28;20026;-78
2022/03/09 10:37:57;;;;;;;16.75;7.40;;;;;;;13.53;28.97;101124.38;5021789;28;20036;-78
2022/03/09 10:40:23;;;;;;;26.90;8.18;;;;;;;13.46;29.37;101114.06;5040527;28;20132;-82
2022/03/09 10:42:50;;;;;;;16.33;8.32;;;;;;;13.24;29.74;101107.72;5039385;28;20479;-78
2022/03/09 10:45:17;;;;;;;14.32;6.88;;;;;;;13.02;29.75;101105.00;5020024;28;20021;-78
2022/03/09 10:47:48;;;;;;;12.77;6.15;;;;;;;13.02;29.31;101112.78;5019485;28;20032;-81
2022/03/09 10:50:20;;;;;;;20.17;6.95;;;;;;;12.99;29.54;101111.66;5036231;28;20242;-80
2022/03/09 10:52:45;;;;;;;17.05;6.90;;;;;;;12.98;29.84;101108.00;5019624;28;20447;-76
2022/03/09 10:55:32;;;;;;;12.57;7.38;;;;;;;12.89;29.85;101110.88;5020874;28;20073;-78
2022/03/09 10:58:17;;;;;;;15.77;7.25;;;;;;;12.67;30.44;101101.66;5036248;28;20021;-80
2022/03/09 11:00:54;;;;;;;20.42;10.00;;;;;;;12.60;31.04;101099.09;5036941;28;20099;-80
2022/03/09 11:03:27;;;;;;;18.20;8.20;;;;;;;12.49;30.81;101101.59;5002768;28;20025;-81
2022/03/09 11:05:54;;;;;;;15.20;7.75;;;;;;;12.51;30.22;101099.06;5005335;28;20036;-80
2022/03/09 11:08:30;;;;;;;14.35;7.95;;;;;;;12.42;30.73;101101.91;5019393;28;20109;-75
2022/03/09 11:10:58;;;;;;;16.25;6.82;;;;;;;12.55;30.57;101105.41;5036904;28;20033;-78